João Souza

Scout - Bragantino
26 Dez 2026
Samstag
Verarbeitung

Persönlichkeit

Anpassungsfähigkeit (10) Ehrgeiz (10) Kontroverse (6) Loyalität (4) Druck (5) Professionalität (11) Fairness (18) Temperament (10)

Profil

Trainerstil Demokratisch
Lizenz Nationale A
Entschlossenheit 9
Menschenführung 6
Motivation 5
Disziplin 14
Arbeitszufriedenheit
50%
Ermüdung
0%
Rolle Scout
Gehalt 87.1K p/W
Vertrag 14.03.2030

Leistung

Verhalten Normal
Trainingseffektivität
25%
Spielerentwicklung
25%
Verletzungsprävention
35%
Taktische Umsetzung
45%

Letzte Ereignisse

Nahm an einer Scouting-Besprechung teil jetzt
Nahm an einer Scouting-Besprechung teil jetzt
Nahm an einer Scouting-Besprechung teil 7T her
Nahm an einer Scouting-Besprechung teil 7T her
Nahm an einer Scouting-Besprechung teil 7T her
Nahm an einer Scouting-Besprechung teil 7T her
Nahm an einer Scouting-Besprechung teil 14T her
Nahm an einer Scouting-Besprechung teil 14T her

Aktuell beobachtet

122
Spieler Verein Status Fähigkeit Vertrauen Beobachtet Zuletzt beobachtet Letzte Stimme
Marcos Antonio Sport Recife Verloren 137 / 136 40% 2 30.11.2026 Mehr Infos nötig
Christian Krasnodar Aktiv 128 / 149 40% 3 30.11.2026 -
Geny Sporting CP Aktiv 145 / 135 40% 2 29.11.2026 -
Diego Lainez Tigres Aktiv 123 / 119 40% 1 29.11.2026 -
Welington Southampton Aktiv 138 / 143 40% 2 28.11.2026 -
Yanis Begraoui Estoril Praia Aktiv 126 / 123 40% 5 28.11.2026 -
Alan Benfica Aktiv 140 / 119 40% 1 28.11.2026 Mehr Infos nötig
Babis Kostoulas Brighton Aktiv 124 / 139 40% 3 27.11.2026 -
Thibault Pons Tours Aktiv 125 / 123 40% 1 27.11.2026 -
Kaio Eduardo Basel Aktiv 117 / 120 40% 5 26.11.2026 -
Roméo Beney Famalicao Aktiv 123 / 106 40% 3 26.11.2026 -
Tomás Araújo Benfica Aktiv 135 / 134 40% 2 26.11.2026 -
Diego Costa Krasnodar Aktiv 142 / 151 40% 2 26.11.2026 -
Dilan Godoy Vélez Aktiv 106 / 112 40% 4 24.11.2026 -
Moctar Diop KAA Gent Aktiv 111 / 134 40% 2 24.11.2026 -
Mathis Jangeal Famalicao Aktiv 104 / 122 40% 1 24.11.2026 -
Víctor Guzmán Sporting CP Aktiv 99 / 100 40% 2 22.11.2026 -
Mihailo Ivanović Millwall Aktiv 114 / 114 40% 2 22.11.2026 -
Léo Jacó Santa Clara Aktiv 101 / 105 40% 3 21.11.2026 -
Borja Sainz Porto Aktiv 139 / 145 40% 4 21.11.2026 -
Samuel Lino Flamengo Aktiv 133 / 127 40% 2 21.11.2026 -
Luis Fernando Santa Clara Aktiv 92 / 117 40% 3 21.11.2026 -
Gabriel Pirani San Diego Football Club Aktiv 130 / 122 40% 2 21.11.2026 -
Sindre Walle Egeli Nottingham Forest Aktiv 122 / 136 40% 1 21.11.2026 -
Rayan Bournemouth Aktiv 129 / 128 40% 2 18.11.2026 -
Matías Contrera Northampton Town Aktiv 109 / 103 40% 2 18.11.2026 -
Oumar Camara Vitoria Guimaraes Aktiv 125 / 126 40% 2 16.11.2026 -
Kasper Høgh Bloemfontein Celtic Aktiv 125 / 135 40% 2 16.11.2026 -
Jonás Luna Wanderers Aktiv 113 / 115 40% 2 16.11.2026 -
André Clovis Chaves Aktiv 121 / 131 40% 1 16.11.2026 -
André Wolverhampton Aktiv 134 / 137 40% 2 15.11.2026 -
Sorriso Famalicao Aktiv 135 / 142 40% 2 15.11.2026 -
Haissem Hassan Bloemfontein Celtic Aktiv 143 / 115 40% 2 13.11.2026 -
Ole Pohlmann Rio Ave Aktiv 116 / 115 40% 1 13.11.2026 -
Pedro Flamengo Aktiv 145 / 128 40% 2 11.11.2026 Mehr Infos nötig
Adrián Martínez Racing Club Aktiv 134 / 133 40% 2 11.11.2026 -
Lucas Moura Sport Recife Verloren 132 / 136 40% 1 11.11.2026 -
Talles Magno New York City Aktiv 120 / 117 40% 2 10.11.2026 -
Juninho Pumas UNAM Aktiv 116 / 133 40% 1 10.11.2026 -
Hamilton Moreirense Aktiv 120 / 119 40% 1 10.11.2026 -
Rafael Navarro St. Louis CITY SC Aktiv 130 / 114 40% 1 10.11.2026 -
Abraham Marcus Estrela da Amadora Aktiv 129 / 124 40% 1 10.11.2026 -
Endrick Real Madrid Aktiv 138 / 141 40% 2 07.11.2026 -
Felix Owusu Liberty Professionals Aktiv 101 / 111 40% 1 07.11.2026 -
Paulinho Palmeiras Verloren 137 / 139 40% 2 06.11.2026 Mehr Infos nötig
Roberto Fernández Braga Aktiv 149 / 146 40% 2 06.11.2026 -
Toni Tamarit Alverca Aktiv 110 / 118 40% 4 03.11.2026 -
Lautaro Piola Vélez Aktiv 98 / 107 40% 1 03.11.2026 -
Felipe Augusto Zenit Verloren 146 / 126 40% 2 02.11.2026 -
Arthur Gomes Dinamo Moscow Aktiv 112 / 115 40% 1 02.11.2026 -
Gustavo Silva Vitoria Guimaraes Aktiv 113 / 138 40% 1 29.10.2026 -
Mohammed Bouldini Académico de Viseu Aktiv 124 / 114 40% 1 29.10.2026 -
Luis Suárez PSV Aktiv 163 / 138 40% 1 29.10.2026 -
Vitor Roque Palmeiras Aktiv 150 / 155 40% 3 28.10.2026 -
André Luiz Sporting Kansas City Aktiv 128 / 109 40% 2 28.10.2026 -
Ilyas Ansah Hull City Aktiv 119 / 132 40% 3 28.10.2026 -
Maximiliano Araújo Sporting CP Aktiv 138 / 152 40% 1 28.10.2026 Mehr Infos nötig
Dom Ballard Leyton Orient Aktiv 112 / 107 40% 2 26.10.2026 -
Edison Gruezo Queretaro Aktiv 99 / 128 40% 1 26.10.2026 -
José Manuel López Palmeiras Aktiv 130 / 122 40% 1 26.10.2026 -
Richarlison Tottenham Aktiv 148 / 157 40% 1 26.10.2026 -
Gabriel Veron Porto Aktiv 123 / 142 40% 1 24.10.2026 -
Rafa Benfica Verloren 135 / 143 40% 1 24.10.2026 -
Ángel Correa River Plate Aktiv 141 / 137 40% 2 23.10.2026 -
Carlos Vinícius Grêmio Aktiv 136 / 136 40% 1 23.10.2026 -
Iwan Morgan Grimsby Town Aktiv 110 / 116 40% 1 21.10.2026 -
Guilherme Houston Dynamo Aktiv 128 / 116 40% 1 19.10.2026 -
Alex Luna Instituto Aktiv 129 / 120 40% 1 17.10.2026 -
Mauro Júnior PSV Aktiv 137 / 155 40% 1 16.10.2026 -
Jakub Kiwior Porto Aktiv 165 / 173 40% 1 14.10.2026 -
Alexandro Bernabei Internacional Aktiv 139 / 126 40% 1 14.10.2026 -
Ronald Swansea City Aktiv 130 / 126 40% 1 14.10.2026 -
Joaquim Tigres Aktiv 123 / 116 40% 1 12.10.2026 -
Mathias De Amorim Famalicao Aktiv 124 / 137 40% 1 12.10.2026 -
Abner Vinicius Olympique Lyonnais Aktiv 147 / 141 40% 1 12.10.2026 -
Deivid Washington RC Strasbourg Aktiv 125 / 133 40% 3 10.10.2026 -
Xavier Biscayzacú Sporting CP Aktiv 126 / 145 40% 3 10.10.2026 -
Luther Tau SuperSport United Aktiv 110 / 120 40% 2 09.10.2026 -
Matías Fernández-Pardo Newcastle United Aktiv 133 / 132 40% 1 09.10.2026 -
Bright Arrey-Mbi Braga Aktiv 131 / 121 40% 1 07.10.2026 -
Dinis Pinto Moreirense Aktiv 121 / 145 40% 1 07.10.2026 -
Alan Varela Porto Aktiv 134 / 159 40% 2 01.10.2026 -
Antony Portland Timbers Aktiv 118 / 115 40% 2 01.10.2026 -
Chiquinho Alverca Aktiv 129 / 141 40% 1 01.10.2026 -
Martinelli Fluminense Aktiv 137 / 136 40% 1 28.09.2026 Mehr Infos nötig
Yoshan Valois Lanús Aktiv 122 / 117 40% 2 25.09.2026 -
Alexey Batrakov Galatasaray Aktiv 146 / 153 40% 1 25.09.2026 -
Stefanos Tzimas Brighton Aktiv 129 / 132 40% 1 24.09.2026 -
João Gomes Aston Villa Aktiv 145 / 124 40% 2 23.09.2026 -
Andrey Santos Manchester United Aktiv 129 / 141 40% 1 23.09.2026 -
Allan Manchester City Aktiv 138 / 125 40% 1 23.09.2026 -
Francisco Moura Penafiel Aktiv 129 / 138 40% 1 22.09.2026 -
Gonçalo Inácio Sporting CP Aktiv 139 / 153 40% 1 19.09.2026 Mehr Infos nötig
Gabriel Pereira FC Copenhagen Aktiv 139 / 123 40% 1 19.09.2026 -
Nehuén Pérez Porto Aktiv 127 / 123 40% 1 19.09.2026 -
Pedro Henrique Shakhtar Aktiv 118 / 119 40% 1 18.09.2026 -
Alberto Costa Porto Aktiv 143 / 138 40% 1 18.09.2026 -
Exequiel Palacios Ipswich Town Aktiv 169 / 157 40% 1 18.09.2026 -
Matheus Alves Zenit Aktiv 129 / 121 40% 1 17.09.2026 -
Helinho Toluca Aktiv 124 / 133 40% 1 16.09.2026 -
Vinicius Tobias Shakhtar Aktiv 140 / 118 40% 1 15.09.2026 -
Assane Diao Como Aktiv 139 / 150 40% 1 13.09.2026 -
Agustín Ruberto River Plate Aktiv 115 / 116 40% 3 12.09.2026 -
Cristian Medina Botafogo Aktiv 121 / 139 40% 1 12.09.2026 -
Erick Pulga Bahia Verloren 124 / 130 40% 1 12.09.2026 -
Francis Amuzu Grêmio Aktiv 126 / 132 40% 1 10.09.2026 -
Zeno Debast Sporting CP Aktiv 148 / 136 40% 1 07.09.2026 -
Beraldo Paris Saint-Germain Aktiv 141 / 133 40% 1 07.09.2026 -
Luciano Inverso Rentistas Aktiv 111 / 127 40% 1 05.09.2026 -
Tiziano Dornell Almagro Aktiv 108 / 114 40% 1 05.09.2026 -
Diego Porcel Argentinos Juniors Aktiv 113 / 117 40% 2 31.08.2026 -
Mathys Tel Stade Rennais Aktiv 138 / 161 40% 1 31.08.2026 -
Patrick Ouotro Vitoria Guimaraes Aktiv 99 / 106 40% 1 18.08.2026 -
Wendell Livyi Bereh Aktiv 96 / 108 40% 1 18.08.2026 -
Kaique Kenji Cruzeiro Aktiv 106 / 121 40% 1 10.08.2026 -
Gabriel Silva Sporting CP Aktiv 95 / 112 40% 1 09.08.2026 -
Ejike Opara Vitoria Guimaraes Aktiv 102 / 95 40% 1 09.08.2026 -
João Simões Sporting CP Aktiv 117 / 137 40% 1 08.08.2026 -
Luis Otávio Orlando City Aktiv 94 / 113 40% 1 08.08.2026 -
Thiago Ponce Rosario Central Aktiv 92 / 104 40% 1 06.08.2026 -
Facundo Di Biasi Gimnasia La Plata Aktiv 110 / 127 40% 1 02.08.2026 -
Max Scholze Estrela da Amadora Aktiv 100 / 106 40% 1 02.08.2026 -